sensor_id;sensor_type;location;lat;lon;timestamp;P1;P2;P0
61815;PMS5003;57055;-35.296;149.168;2023-03-25T00:00:15;3;3;
61815;PMS5003;57055;-35.296;149.168;2023-03-25T00:02:45;5;4;
61815;PMS5003;57055;-35.296;149.168;2023-03-25T00:05:15;4;4;
61815;PMS5003;57055;-35.296;149.168;2023-03-25T00:07:47;3;3;
61815;PMS5003;57055;-35.296;149.168;2023-03-25T00:10:17;3;3;
61815;PMS5003;57055;-35.296;149.168;2023-03-25T00:12:46;3;3;
61815;PMS5003;57055;-35.296;149.168;2023-03-25T00:15:15;3;3;
61815;PMS5003;57055;-35.296;149.168;2023-03-25T00:17:44;3;3;
61815;PMS5003;57055;-35.296;149.168;2023-03-25T00:20:13;9;5;
61815;PMS5003;57055;-35.296;149.168;2023-03-25T00:22:42;3;3;
61815;PMS5003;57055;-35.296;149.168;2023-03-25T00:25:11;2;2;
61815;PMS5003;57055;-35.296;149.168;2023-03-25T00:27:41;2;1;
61815;PMS5003;57055;-35.296;149.168;2023-03-25T00:30:11;3;3;
61815;PMS5003;57055;-35.296;149.168;2023-03-25T00:32:41;2;2;
61815;PMS5003;57055;-35.296;149.168;2023-03-25T00:35:11;3;2;
61815;PMS5003;57055;-35.296;149.168;2023-03-25T00:37:41;2;2;
61815;PMS5003;57055;-35.296;149.168;2023-03-25T00:40:09;3;2;
61815;PMS5003;57055;-35.296;149.168;2023-03-25T00:42:39;2;2;
61815;PMS5003;57055;-35.296;149.168;2023-03-25T00:45:07;4;3;
61815;PMS5003;57055;-35.296;149.168;2023-03-25T00:47:37;3;3;
61815;PMS5003;57055;-35.296;149.168;2023-03-25T00:50:06;5;3;
61815;PMS5003;57055;-35.296;149.168;2023-03-25T00:52:35;4;3;
61815;PMS5003;57055;-35.296;149.168;2023-03-25T00:55:05;2;2;
61815;PMS5003;57055;-35.296;149.168;2023-03-25T00:57:35;4;3;
61815;PMS5003;57055;-35.296;149.168;2023-03-25T01:00:05;3;3;
61815;PMS5003;57055;-35.296;149.168;2023-03-25T01:02:38;3;3;
61815;PMS5003;57055;-35.296;149.168;2023-03-25T01:05:08;2;2;
61815;PMS5003;57055;-35.296;149.168;2023-03-25T01:07:38;3;2;
61815;PMS5003;57055;-35.296;149.168;2023-03-25T01:10:08;2;2;
61815;PMS5003;57055;-35.296;149.168;2023-03-25T01:12:37;3;3;
61815;PMS5003;57055;-35.296;149.168;2023-03-25T01:15:06;2;2;
61815;PMS5003;57055;-35.296;149.168;2023-03-25T01:17:37;4;3;
61815;PMS5003;57055;-35.296;149.168;2023-03-25T01:20:06;5;5;
61815;PMS5003;57055;-35.296;149.168;2023-03-25T01:22:36;3;3;
61815;PMS5003;57055;-35.296;149.168;2023-03-25T01:25:05;4;4;
61815;PMS5003;57055;-35.296;149.168;2023-03-25T01:27:34;5;4;
61815;PMS5003;57055;-35.296;149.168;2023-03-25T01:30:04;6;5;
61815;PMS5003;57055;-35.296;149.168;2023-03-25T01:32:34;2;2;
61815;PMS5003;57055;-35.296;149.168;2023-03-25T01:35:03;6;4;
61815;PMS5003;57055;-35.296;149.168;2023-03-25T01:37:32;2;2;
61815;PMS5003;57055;-35.296;149.168;2023-03-25T01:40:00;5;5;
61815;PMS5003;57055;-35.296;149.168;2023-03-25T01:42:30;2;2;
61815;PMS5003;57055;-35.296;149.168;2023-03-25T01:45:15;4;4;
61815;PMS5003;57055;-35.296;149.168;2023-03-25T01:47:48;4;4;
61815;PMS5003;57055;-35.296;149.168;2023-03-25T01:50:20;5;5;
61815;PMS5003;57055;-35.296;149.168;2023-03-25T01:52:50;4;3;
61815;PMS5003;57055;-35.296;149.168;2023-03-25T01:55:19;4;4;
61815;PMS5003;57055;-35.296;149.168;2023-03-25T01:57:49;3;3;
61815;PMS5003;57055;-35.296;149.168;2023-03-25T02:00:23;3;3;
61815;PMS5003;57055;-35.296;149.168;2023-03-25T02:02:52;3;3;
61815;PMS5003;57055;-35.296;149.168;2023-03-25T02:05:26;4;4;
61815;PMS5003;57055;-35.296;149.168;2023-03-25T02:08:00;3;3;
61815;PMS5003;57055;-35.296;149.168;2023-03-25T02:10:31;4;2;
61815;PMS5003;57055;-35.296;149.168;2023-03-25T02:13:01;3;3;
61815;PMS5003;57055;-35.296;149.168;2023-03-25T02:15:35;3;3;
61815;PMS5003;57055;-35.296;149.168;2023-03-25T02:18:21;3;3;
61815;PMS5003;57055;-35.296;149.168;2023-03-25T02:21:10;3;3;
61815;PMS5003;57055;-35.296;149.168;2023-03-25T02:24:13;4;4;
61815;PMS5003;57055;-35.296;149.168;2023-03-25T02:27:08;2;2;
61815;PMS5003;57055;-35.296;149.168;2023-03-25T02:29:49;5;3;
61815;PMS5003;57055;-35.296;149.168;2023-03-25T02:32:59;3;3;
61815;PMS5003;57055;-35.296;149.168;2023-03-25T02:35:45;3;3;
61815;PMS5003;57055;-35.296;149.168;2023-03-25T02:38:10;3;3;
61815;PMS5003;57055;-35.296;149.168;2023-03-25T02:40:46;4;4;
61815;PMS5003;57055;-35.296;149.168;2023-03-25T02:43:21;3;3;
61815;PMS5003;57055;-35.296;149.168;2023-03-25T02:45:56;2;2;
61815;PMS5003;57055;-35.296;149.168;2023-03-25T02:48:29;3;3;
61815;PMS5003;57055;-35.296;149.168;2023-03-25T02:51:05;4;4;
61815;PMS5003;57055;-35.296;149.168;2023-03-25T02:53:38;3;3;
61815;PMS5003;57055;-35.296;149.168;2023-03-25T02:56:11;3;3;
61815;PMS5003;57055;-35.296;149.168;2023-03-25T02:58:43;1;1;
61815;PMS5003;57055;-35.296;149.168;2023-03-25T03:01:15;2;2;
61815;PMS5003;57055;-35.296;149.168;2023-03-25T03:03:44;2;2;
61815;PMS5003;57055;-35.296;149.168;2023-03-25T03:06:14;3;3;
61815;PMS5003;57055;-35.296;149.168;2023-03-25T03:08:50;3;3;
61815;PMS5003;57055;-35.296;149.168;2023-03-25T03:11:29;3;3;
61815;PMS5003;57055;-35.296;149.168;2023-03-25T03:14:09;2;2;
61815;PMS5003;57055;-35.296;149.168;2023-03-25T03:16:55;3;3;
61815;PMS5003;57055;-35.296;149.168;2023-03-25T03:19:34;3;3;
61815;PMS5003;57055;-35.296;149.168;2023-03-25T03:22:12;4;4;
61815;PMS5003;57055;-35.296;149.168;2023-03-25T03:24:51;4;4;
61815;PMS5003;57055;-35.296;149.168;2023-03-25T03:27:27;5;4;
61815;PMS5003;57055;-35.296;149.168;2023-03-25T03:30:03;4;4;
61815;PMS5003;57055;-35.296;149.168;2023-03-25T03:32:38;3;3;
61815;PMS5003;57055;-35.296;149.168;2023-03-25T03:35:13;3;2;
61815;PMS5003;57055;-35.296;149.168;2023-03-25T03:37:48;7;3;
61815;PMS5003;57055;-35.296;149.168;2023-03-25T03:40:22;4;4;
61815;PMS5003;57055;-35.296;149.168;2023-03-25T03:42:54;4;4;
61815;PMS5003;57055;-35.296;149.168;2023-03-25T03:45:28;3;3;
61815;PMS5003;57055;-35.296;149.168;2023-03-25T03:48:01;3;3;
61815;PMS5003;57055;-35.296;149.168;2023-03-25T03:50:35;4;4;
61815;PMS5003;57055;-35.296;149.168;2023-03-25T03:53:10;6;4;
61815;PMS5003;57055;-35.296;149.168;2023-03-25T03:55:42;5;4;
61815;PMS5003;57055;-35.296;149.168;2023-03-25T03:58:17;6;4;
61815;PMS5003;57055;-35.296;149.168;2023-03-25T04:00:55;3;3;
61815;PMS5003;57055;-35.296;149.168;2023-03-25T04:03:30;5;4;
61815;PMS5003;57055;-35.296;149.168;2023-03-25T04:06:05;4;4;
61815;PMS5003;57055;-35.296;149.168;2023-03-25T04:08:40;3;3;
61815;PMS5003;57055;-35.296;149.168;2023-03-25T04:11:19;3;3;
61815;PMS5003;57055;-35.296;149.168;2023-03-25T04:13:51;4;3;
61815;PMS5003;57055;-35.296;149.168;2023-03-25T04:16:25;3;3;
61815;PMS5003;57055;-35.296;149.168;2023-03-25T04:18:54;4;4;
61815;PMS5003;57055;-35.296;149.168;2023-03-25T04:21:23;3;3;
61815;PMS5003;57055;-35.296;149.168;2023-03-25T04:23:53;3;3;
61815;PMS5003;57055;-35.296;149.168;2023-03-25T04:26:22;4;3;
61815;PMS5003;57055;-35.296;149.168;2023-03-25T04:28:50;4;4;
61815;PMS5003;57055;-35.296;149.168;2023-03-25T04:31:19;3;3;
61815;PMS5003;57055;-35.296;149.168;2023-03-25T04:33:47;6;6;
61815;PMS5003;57055;-35.296;149.168;2023-03-25T04:36:16;8;5;
61815;PMS5003;57055;-35.296;149.168;2023-03-25T04:38:45;5;5;
61815;PMS5003;57055;-35.296;149.168;2023-03-25T04:41:14;6;6;
61815;PMS5003;57055;-35.296;149.168;2023-03-25T04:43:42;4;3;
61815;PMS5003;57055;-35.296;149.168;2023-03-25T04:46:12;6;4;
61815;PMS5003;57055;-35.296;149.168;2023-03-25T04:48:43;5;4;
61815;PMS5003;57055;-35.296;149.168;2023-03-25T04:51:13;3;3;
61815;PMS5003;57055;-35.296;149.168;2023-03-25T04:53:42;5;3;
61815;PMS5003;57055;-35.296;149.168;2023-03-25T04:56:12;3;3;
61815;PMS5003;57055;-35.296;149.168;2023-03-25T04:58:44;4;4;
61815;PMS5003;57055;-35.296;149.168;2023-03-25T05:01:18;3;3;
61815;PMS5003;57055;-35.296;149.168;2023-03-25T05:03:50;4;4;
61815;PMS5003;57055;-35.296;149.168;2023-03-25T05:06:19;4;4;
61815;PMS5003;57055;-35.296;149.168;2023-03-25T05:08:47;4;4;
61815;PMS5003;57055;-35.296;149.168;2023-03-25T05:11:16;3;3;
61815;PMS5003;57055;-35.296;149.168;2023-03-25T05:13:45;3;3;
61815;PMS5003;57055;-35.296;149.168;2023-03-25T05:16:14;3;3;
61815;PMS5003;57055;-35.296;149.168;2023-03-25T05:18:42;2;2;
61815;PMS5003;57055;-35.296;149.168;2023-03-25T05:21:11;3;3;
61815;PMS5003;57055;-35.296;149.168;2023-03-25T05:23:41;4;2;
61815;PMS5003;57055;-35.296;149.168;2023-03-25T05:26:10;2;2;
61815;PMS5003;57055;-35.296;149.168;2023-03-25T05:28:40;2;2;
61815;PMS5003;57055;-35.296;149.168;2023-03-25T05:31:09;4;3;
61815;PMS5003;57055;-35.296;149.168;2023-03-25T05:33:38;2;2;
61815;PMS5003;57055;-35.296;149.168;2023-03-25T05:36:07;3;3;
61815;PMS5003;57055;-35.296;149.168;2023-03-25T05:38:37;2;2;
61815;PMS5003;57055;-35.296;149.168;2023-03-25T05:41:06;1;1;
61815;PMS5003;57055;-35.296;149.168;2023-03-25T05:43:37;2;2;
61815;PMS5003;57055;-35.296;149.168;2023-03-25T05:46:06;4;4;
61815;PMS5003;57055;-35.296;149.168;2023-03-25T05:48:34;3;3;
61815;PMS5003;57055;-35.296;149.168;2023-03-25T05:51:03;3;3;
61815;PMS5003;57055;-35.296;149.168;2023-03-25T05:53:38;1;1;
61815;PMS5003;57055;-35.296;149.168;2023-03-25T05:56:07;3;3;
61815;PMS5003;57055;-35.296;149.168;2023-03-25T05:58:36;1;1;
61815;PMS5003;57055;-35.296;149.168;2023-03-25T06:01:05;3;3;
61815;PMS5003;57055;-35.296;149.168;2023-03-25T06:03:36;3;3;
61815;PMS5003;57055;-35.296;149.168;2023-03-25T06:06:06;1;1;
61815;PMS5003;57055;-35.296;149.168;2023-03-25T06:08:37;3;3;
61815;PMS5003;57055;-35.296;149.168;2023-03-25T06:11:06;2;1;
61815;PMS5003;57055;-35.296;149.168;2023-03-25T06:13:35;3;3;
61815;PMS5003;57055;-35.296;149.168;2023-03-25T06:16:04;2;2;
61815;PMS5003;57055;-35.296;149.168;2023-03-25T06:18:34;3;3;
61815;PMS5003;57055;-35.296;149.168;2023-03-25T06:21:04;3;1;
61815;PMS5003;57055;-35.296;149.168;2023-03-25T06:23:33;2;2;
61815;PMS5003;57055;-35.296;149.168;2023-03-25T06:26:02;3;2;
61815;PMS5003;57055;-35.296;149.168;2023-03-25T06:28:32;3;3;
61815;PMS5003;57055;-35.296;149.168;2023-03-25T06:31:00;1;1;
61815;PMS5003;57055;-35.296;149.168;2023-03-25T06:33:30;2;2;
61815;PMS5003;57055;-35.296;149.168;2023-03-25T06:35:59;3;3;
61815;PMS5003;57055;-35.296;149.168;2023-03-25T06:38:28;2;2;
61815;PMS5003;57055;-35.296;149.168;2023-03-25T06:40:56;5;4;
61815;PMS5003;57055;-35.296;149.168;2023-03-25T06:43:26;3;3;
61815;PMS5003;57055;-35.296;149.168;2023-03-25T06:45:54;2;1;
61815;PMS5003;57055;-35.296;149.168;2023-03-25T06:48:23;4;4;
61815;PMS5003;57055;-35.296;149.168;2023-03-25T06:50:51;3;3;
61815;PMS5003;57055;-35.296;149.168;2023-03-25T06:53:20;4;4;
61815;PMS5003;57055;-35.296;149.168;2023-03-25T06:55:48;3;3;
61815;PMS5003;57055;-35.296;149.168;2023-03-25T06:58:17;3;3;
61815;PMS5003;57055;-35.296;149.168;2023-03-25T07:00:46;3;3;
61815;PMS5003;57055;-35.296;149.168;2023-03-25T07:03:19;3;2;
61815;PMS5003;57055;-35.296;149.168;2023-03-25T07:05:48;2;2;
61815;PMS5003;57055;-35.296;149.168;2023-03-25T07:08:17;5;5;
61815;PMS5003;57055;-35.296;149.168;2023-03-25T07:10:47;2;2;
61815;PMS5003;57055;-35.296;149.168;2023-03-25T07:13:15;3;2;
61815;PMS5003;57055;-35.296;149.168;2023-03-25T07:15:44;1;1;
61815;PMS5003;57055;-35.296;149.168;2023-03-25T07:18:12;2;2;
61815;PMS5003;57055;-35.296;149.168;2023-03-25T07:20:41;2;2;
61815;PMS5003;57055;-35.296;149.168;2023-03-25T07:23:09;3;1;
61815;PMS5003;57055;-35.296;149.168;2023-03-25T07:25:38;3;3;
61815;PMS5003;57055;-35.296;149.168;2023-03-25T07:28:08;7;5;
61815;PMS5003;57055;-35.296;149.168;2023-03-25T07:30:37;3;3;
61815;PMS5003;57055;-35.296;149.168;2023-03-25T07:33:07;2;2;
61815;PMS5003;57055;-35.296;149.168;2023-03-25T07:35:36;2;2;
61815;PMS5003;57055;-35.296;149.168;2023-03-25T07:38:05;3;3;
61815;PMS5003;57055;-35.296;149.168;2023-03-25T07:40:33;2;2;
61815;PMS5003;57055;-35.296;149.168;2023-03-25T07:43:02;1;1;
61815;PMS5003;57055;-35.296;149.168;2023-03-25T07:45:31;3;3;
61815;PMS5003;57055;-35.296;149.168;2023-03-25T07:48:00;2;2;
61815;PMS5003;57055;-35.296;149.168;2023-03-25T07:50:28;1;1;
61815;PMS5003;57055;-35.296;149.168;2023-03-25T07:52:57;2;2;
61815;PMS5003;57055;-35.296;149.168;2023-03-25T07:55:25;3;3;
61815;PMS5003;57055;-35.296;149.168;2023-03-25T07:57:54;1;1;
61815;PMS5003;57055;-35.296;149.168;2023-03-25T08:00:23;2;2;
61815;PMS5003;57055;-35.296;149.168;2023-03-25T08:02:52;3;2;
61815;PMS5003;57055;-35.296;149.168;2023-03-25T08:05:21;4;3;
61815;PMS5003;57055;-35.296;149.168;2023-03-25T08:07:50;2;2;
61815;PMS5003;57055;-35.296;149.168;2023-03-25T08:10:20;3;2;
61815;PMS5003;57055;-35.296;149.168;2023-03-25T08:12:50;2;2;
61815;PMS5003;57055;-35.296;149.168;2023-03-25T08:15:19;2;2;
61815;PMS5003;57055;-35.296;149.168;2023-03-25T08:17:48;2;2;
61815;PMS5003;57055;-35.296;149.168;2023-03-25T08:20:17;2;2;
61815;PMS5003;57055;-35.296;149.168;2023-03-25T08:22:47;2;2;
61815;PMS5003;57055;-35.296;149.168;2023-03-25T08:25:15;2;2;
61815;PMS5003;57055;-35.296;149.168;2023-03-25T08:27:44;3;1;
61815;PMS5003;57055;-35.296;149.168;2023-03-25T08:30:13;2;2;
61815;PMS5003;57055;-35.296;149.168;2023-03-25T08:32:42;1;1;
61815;PMS5003;57055;-35.296;149.168;2023-03-25T08:35:11;2;2;
61815;PMS5003;57055;-35.296;149.168;2023-03-25T08:37:41;4;2;
61815;PMS5003;57055;-35.296;149.168;2023-03-25T08:40:09;2;2;
61815;PMS5003;57055;-35.296;149.168;2023-03-25T08:42:39;3;3;
61815;PMS5003;57055;-35.296;149.168;2023-03-25T08:45:09;3;3;
61815;PMS5003;57055;-35.296;149.168;2023-03-25T08:47:38;2;2;
61815;PMS5003;57055;-35.296;149.168;2023-03-25T08:50:07;2;2;
61815;PMS5003;57055;-35.296;149.168;2023-03-25T08:52:36;1;1;
61815;PMS5003;57055;-35.296;149.168;2023-03-25T08:55:05;3;2;
61815;PMS5003;57055;-35.296;149.168;2023-03-25T08:57:34;2;2;
61815;PMS5003;57055;-35.296;149.168;2023-03-25T09:00:04;0;0;
61815;PMS5003;57055;-35.296;149.168;2023-03-25T09:02:34;2;2;
61815;PMS5003;57055;-35.296;149.168;2023-03-25T09:05:03;2;2;
61815;PMS5003;57055;-35.296;149.168;2023-03-25T09:07:32;2;2;
61815;PMS5003;57055;-35.296;149.168;2023-03-25T09:10:01;3;3;
61815;PMS5003;57055;-35.296;149.168;2023-03-25T09:12:30;1;1;
61815;PMS5003;57055;-35.296;149.168;2023-03-25T09:14:59;1;1;
61815;PMS5003;57055;-35.296;149.168;2023-03-25T09:17:27;3;2;
61815;PMS5003;57055;-35.296;149.168;2023-03-25T09:19:56;2;2;
61815;PMS5003;57055;-35.296;149.168;2023-03-25T09:22:24;3;3;
61815;PMS5003;57055;-35.296;149.168;2023-03-25T09:24:53;0;0;
61815;PMS5003;57055;-35.296;149.168;2023-03-25T09:27:22;0;0;
61815;PMS5003;57055;-35.296;149.168;2023-03-25T09:29:51;2;2;
61815;PMS5003;57055;-35.296;149.168;2023-03-25T09:32:20;1;1;
61815;PMS5003;57055;-35.296;149.168;2023-03-25T09:34:49;1;1;
61815;PMS5003;57055;-35.296;149.168;2023-03-25T09:37:17;2;2;
61815;PMS5003;57055;-35.296;149.168;2023-03-25T09:39:46;1;1;
61815;PMS5003;57055;-35.296;149.168;2023-03-25T09:42:27;0;0;
61815;PMS5003;57055;-35.296;149.168;2023-03-25T09:45:09;2;2;
61815;PMS5003;57055;-35.296;149.168;2023-03-25T09:47:50;4;3;
61815;PMS5003;57055;-35.296;149.168;2023-03-25T09:50:24;2;2;
61815;PMS5003;57055;-35.296;149.168;2023-03-25T09:52:56;4;3;
61815;PMS5003;57055;-35.296;149.168;2023-03-25T09:55:28;4;3;
61815;PMS5003;57055;-35.296;149.168;2023-03-25T09:58:03;2;1;
61815;PMS5003;57055;-35.296;149.168;2023-03-25T10:00:48;4;2;
61815;PMS5003;57055;-35.296;149.168;2023-03-25T10:03:22;2;2;
61815;PMS5003;57055;-35.296;149.168;2023-03-25T10:06:04;2;2;
61815;PMS5003;57055;-35.296;149.168;2023-03-25T10:08:45;2;2;
61815;PMS5003;57055;-35.296;149.168;2023-03-25T10:11:25;2;2;
61815;PMS5003;57055;-35.296;149.168;2023-03-25T10:14:01;3;3;
61815;PMS5003;57055;-35.296;149.168;2023-03-25T10:16:36;6;2;
61815;PMS5003;57055;-35.296;149.168;2023-03-25T10:19:22;1;1;
61815;PMS5003;57055;-35.296;149.168;2023-03-25T10:22:01;2;2;
61815;PMS5003;57055;-35.296;149.168;2023-03-25T10:24:33;2;2;
61815;PMS5003;57055;-35.296;149.168;2023-03-25T10:27:09;2;2;
61815;PMS5003;57055;-35.296;149.168;2023-03-25T10:29:46;1;1;
61815;PMS5003;57055;-35.296;149.168;2023-03-25T10:32:18;2;2;
61815;PMS5003;57055;-35.296;149.168;2023-03-25T10:34:56;1;1;
61815;PMS5003;57055;-35.296;149.168;2023-03-25T10:37:29;2;2;
61815;PMS5003;57055;-35.296;149.168;2023-03-25T10:40:09;2;2;
61815;PMS5003;57055;-35.296;149.168;2023-03-25T10:40:18;2;2;
61815;PMS5003;57055;-35.296;149.168;2023-03-25T10:42:56;2;2;
61815;PMS5003;57055;-35.296;149.168;2023-03-25T10:45:37;2;2;
61815;PMS5003;57055;-35.296;149.168;2023-03-25T10:48:09;1;1;
61815;PMS5003;57055;-35.296;149.168;2023-03-25T10:50:44;3;3;
61815;PMS5003;57055;-35.296;149.168;2023-03-25T10:53:17;5;2;
61815;PMS5003;57055;-35.296;149.168;2023-03-25T10:55:50;2;2;
61815;PMS5003;57055;-35.296;149.168;2023-03-25T10:58:24;3;2;
61815;PMS5003;57055;-35.296;149.168;2023-03-25T11:00:53;2;2;
61815;PMS5003;57055;-35.296;149.168;2023-03-25T11:03:23;2;2;
61815;PMS5003;57055;-35.296;149.168;2023-03-25T11:05:57;3;3;
61815;PMS5003;57055;-35.296;149.168;2023-03-25T11:08:26;1;1;
61815;PMS5003;57055;-35.296;149.168;2023-03-25T11:10:55;3;3;
61815;PMS5003;57055;-35.296;149.168;2023-03-25T11:13:24;3;3;
61815;PMS5003;57055;-35.296;149.168;2023-03-25T11:15:55;3;2;
61815;PMS5003;57055;-35.296;149.168;2023-03-25T11:18:28;2;2;
61815;PMS5003;57055;-35.296;149.168;2023-03-25T11:21:02;3;3;
61815;PMS5003;57055;-35.296;149.168;2023-03-25T11:23:34;2;1;
61815;PMS5003;57055;-35.296;149.168;2023-03-25T11:26:10;3;3;
61815;PMS5003;57055;-35.296;149.168;2023-03-25T11:28:45;1;1;
61815;PMS5003;57055;-35.296;149.168;2023-03-25T11:31:15;2;2;
61815;PMS5003;57055;-35.296;149.168;2023-03-25T11:33:46;2;2;
61815;PMS5003;57055;-35.296;149.168;2023-03-25T11:36:31;2;2;
61815;PMS5003;57055;-35.296;149.168;2023-03-25T11:39:08;3;2;
61815;PMS5003;57055;-35.296;149.168;2023-03-25T11:41:43;3;1;
61815;PMS5003;57055;-35.296;149.168;2023-03-25T11:44:19;4;3;
61815;PMS5003;57055;-35.296;149.168;2023-03-25T11:46:50;2;2;
61815;PMS5003;57055;-35.296;149.168;2023-03-25T11:49:22;4;3;
61815;PMS5003;57055;-35.296;149.168;2023-03-25T11:51:56;2;2;
61815;PMS5003;57055;-35.296;149.168;2023-03-25T11:54:29;2;2;
61815;PMS5003;57055;-35.296;149.168;2023-03-25T11:56:59;1;1;
61815;PMS5003;57055;-35.296;149.168;2023-03-25T11:59:35;2;2;
61815;PMS5003;57055;-35.296;149.168;2023-03-25T12:02:16;3;3;
61815;PMS5003;57055;-35.296;149.168;2023-03-25T12:04:58;3;3;
61815;PMS5003;57055;-35.296;149.168;2023-03-25T12:07:29;4;4;
61815;PMS5003;57055;-35.296;149.168;2023-03-25T12:10:15;4;3;
61815;PMS5003;57055;-35.296;149.168;2023-03-25T12:12:48;1;1;
61815;PMS5003;57055;-35.296;149.168;2023-03-25T12:15:31;2;2;
61815;PMS5003;57055;-35.296;149.168;2023-03-25T12:18:09;3;3;
61815;PMS5003;57055;-35.296;149.168;2023-03-25T12:20:55;2;2;
61815;PMS5003;57055;-35.296;149.168;2023-03-25T12:23:33;2;2;
61815;PMS5003;57055;-35.296;149.168;2023-03-25T12:26:08;2;2;
61815;PMS5003;57055;-35.296;149.168;2023-03-25T12:28:53;4;4;
61815;PMS5003;57055;-35.296;149.168;2023-03-25T12:31:33;2;2;
61815;PMS5003;57055;-35.296;149.168;2023-03-25T12:34:14;2;2;
61815;PMS5003;57055;-35.296;149.168;2023-03-25T12:36:53;2;2;
61815;PMS5003;57055;-35.296;149.168;2023-03-25T12:39:38;2;2;
61815;PMS5003;57055;-35.296;149.168;2023-03-25T12:42:18;4;3;
61815;PMS5003;57055;-35.296;149.168;2023-03-25T12:45:01;2;2;
61815;PMS5003;57055;-35.296;149.168;2023-03-25T12:47:44;3;3;
61815;PMS5003;57055;-35.296;149.168;2023-03-25T12:50:22;3;3;
61815;PMS5003;57055;-35.296;149.168;2023-03-25T12:53:08;3;3;
61815;PMS5003;57055;-35.296;149.168;2023-03-25T12:55:52;3;2;
61815;PMS5003;57055;-35.296;149.168;2023-03-25T12:58:36;3;3;
61815;PMS5003;57055;-35.296;149.168;2023-03-25T13:01:19;4;3;
61815;PMS5003;57055;-35.296;149.168;2023-03-25T13:04:04;4;4;
61815;PMS5003;57055;-35.296;149.168;2023-03-25T13:06:46;2;2;
61815;PMS5003;57055;-35.296;149.168;2023-03-25T13:09:25;3;3;
61815;PMS5003;57055;-35.296;149.168;2023-03-25T13:12:00;2;2;
61815;PMS5003;57055;-35.296;149.168;2023-03-25T13:14:36;2;2;
61815;PMS5003;57055;-35.296;149.168;2023-03-25T13:17:10;3;3;
61815;PMS5003;57055;-35.296;149.168;2023-03-25T13:19:45;2;2;
61815;PMS5003;57055;-35.296;149.168;2023-03-25T13:22:16;4;4;
61815;PMS5003;57055;-35.296;149.168;2023-03-25T13:24:51;6;4;
61815;PMS5003;57055;-35.296;149.168;2023-03-25T13:27:23;4;4;
61815;PMS5003;57055;-35.296;149.168;2023-03-25T13:29:58;4;4;
61815;PMS5003;57055;-35.296;149.168;2023-03-25T13:32:31;4;2;
61815;PMS5003;57055;-35.296;149.168;2023-03-25T13:35:06;5;3;
61815;PMS5003;57055;-35.296;149.168;2023-03-25T13:37:43;4;4;
61815;PMS5003;57055;-35.296;149.168;2023-03-25T13:40:21;3;3;
61815;PMS5003;57055;-35.296;149.168;2023-03-25T13:42:54;3;3;
61815;PMS5003;57055;-35.296;149.168;2023-03-25T13:45:28;5;4;
61815;PMS5003;57055;-35.296;149.168;2023-03-25T13:48:15;5;4;
61815;PMS5003;57055;-35.296;149.168;2023-03-25T13:50:49;6;6;
61815;PMS5003;57055;-35.296;149.168;2023-03-25T13:53:19;5;5;
61815;PMS5003;57055;-35.296;149.168;2023-03-25T13:55:56;4;4;
61815;PMS5003;57055;-35.296;149.168;2023-03-25T13:58:46;6;5;
61815;PMS5003;57055;-35.296;149.168;2023-03-25T14:01:30;5;5;
61815;PMS5003;57055;-35.296;149.168;2023-03-25T14:06:32;6;5;
61815;PMS5003;57055;-35.296;149.168;2023-03-25T14:09:18;6;5;
61815;PMS5003;57055;-35.296;149.168;2023-03-25T14:12:07;11;7;
61815;PMS5003;57055;-35.296;149.168;2023-03-25T14:14:42;4;4;
61815;PMS5003;57055;-35.296;149.168;2023-03-25T14:17:14;6;6;
61815;PMS5003;57055;-35.296;149.168;2023-03-25T14:19:47;9;7;
61815;PMS5003;57055;-35.296;149.168;2023-03-25T14:22:21;6;6;
61815;PMS5003;57055;-35.296;149.168;2023-03-25T14:24:53;7;6;
61815;PMS5003;57055;-35.296;149.168;2023-03-25T14:27:24;7;7;
61815;PMS5003;57055;-35.296;149.168;2023-03-25T14:29:56;7;5;
61815;PMS5003;57055;-35.296;149.168;2023-03-25T14:32:30;7;6;
61815;PMS5003;57055;-35.296;149.168;2023-03-25T14:36:06;7;5;
61815;PMS5003;57055;-35.296;149.168;2023-03-25T14:38:49;5;5;
61815;PMS5003;57055;-35.296;149.168;2023-03-25T14:42:25;7;6;
61815;PMS5003;57055;-35.296;149.168;2023-03-25T14:46:52;8;5;
61815;PMS5003;57055;-35.296;149.168;2023-03-25T14:49:46;6;4;
61815;PMS5003;57055;-35.296;149.168;2023-03-25T14:52:17;6;4;
61815;PMS5003;57055;-35.296;149.168;2023-03-25T14:54:51;3;3;
61815;PMS5003;57055;-35.296;149.168;2023-03-25T14:57:21;9;7;
61815;PMS5003;57055;-35.296;149.168;2023-03-25T14:59:53;6;6;
61815;PMS5003;57055;-35.296;149.168;2023-03-25T15:02:26;4;4;
61815;PMS5003;57055;-35.296;149.168;2023-03-25T15:04:58;5;4;
61815;PMS5003;57055;-35.296;149.168;2023-03-25T15:07:40;7;7;
61815;PMS5003;57055;-35.296;149.168;2023-03-25T15:10:20;5;5;
61815;PMS5003;57055;-35.296;149.168;2023-03-25T15:12:54;7;7;
61815;PMS5003;57055;-35.296;149.168;2023-03-25T15:15:30;7;6;
61815;PMS5003;57055;-35.296;149.168;2023-03-25T15:18:55;6;5;
61815;PMS5003;57055;-35.296;149.168;2023-03-25T15:21:31;4;4;
61815;PMS5003;57055;-35.296;149.168;2023-03-25T15:24:32;5;5;
61815;PMS5003;57055;-35.296;149.168;2023-03-25T15:27:05;5;5;
61815;PMS5003;57055;-35.296;149.168;2023-03-25T15:29:45;7;6;
61815;PMS5003;57055;-35.296;149.168;2023-03-25T15:32:25;6;6;
61815;PMS5003;57055;-35.296;149.168;2023-03-25T15:36:18;5;4;
61815;PMS5003;57055;-35.296;149.168;2023-03-25T15:39:07;6;4;
61815;PMS5003;57055;-35.296;149.168;2023-03-25T15:41:57;7;5;
61815;PMS5003;57055;-35.296;149.168;2023-03-25T15:44:49;7;7;
61815;PMS5003;57055;-35.296;149.168;2023-03-25T15:47:36;7;6;
61815;PMS5003;57055;-35.296;149.168;2023-03-25T15:50:22;5;4;
61815;PMS5003;57055;-35.296;149.168;2023-03-25T15:53:09;4;4;
61815;PMS5003;57055;-35.296;149.168;2023-03-25T15:56:00;6;5;
61815;PMS5003;57055;-35.296;149.168;2023-03-25T15:58:35;7;6;
61815;PMS5003;57055;-35.296;149.168;2023-03-25T16:01:13;5;4;
61815;PMS5003;57055;-35.296;149.168;2023-03-25T16:03:49;8;7;
61815;PMS5003;57055;-35.296;149.168;2023-03-25T16:06:25;4;4;
61815;PMS5003;57055;-35.296;149.168;2023-03-25T16:08:57;7;5;
61815;PMS5003;57055;-35.296;149.168;2023-03-25T16:11:27;7;5;
61815;PMS5003;57055;-35.296;149.168;2023-03-25T16:14:00;7;4;
61815;PMS5003;57055;-35.296;149.168;2023-03-25T16:16:31;5;5;
61815;PMS5003;57055;-35.296;149.168;2023-03-25T16:19:04;3;3;
61815;PMS5003;57055;-35.296;149.168;2023-03-25T16:21:38;5;5;
61815;PMS5003;57055;-35.296;149.168;2023-03-25T16:24:09;4;4;
61815;PMS5003;57055;-35.296;149.168;2023-03-25T16:26:41;3;3;
61815;PMS5003;57055;-35.296;149.168;2023-03-25T16:29:15;6;6;
61815;PMS5003;57055;-35.296;149.168;2023-03-25T16:31:54;4;4;
61815;PMS5003;57055;-35.296;149.168;2023-03-25T16:34:26;4;4;
61815;PMS5003;57055;-35.296;149.168;2023-03-25T16:37:00;4;4;
61815;PMS5003;57055;-35.296;149.168;2023-03-25T16:39:31;5;5;
61815;PMS5003;57055;-35.296;149.168;2023-03-25T16:42:03;3;3;
61815;PMS5003;57055;-35.296;149.168;2023-03-25T16:44:39;7;5;
61815;PMS5003;57055;-35.296;149.168;2023-03-25T16:47:09;5;4;